McAllister, Montana
Current Conditions -  °F | °C
As of 9:56 PM on Sunday 21 Dec 2014 (Local Time) from KBZN Reporting Station
Broken Clouds Broken Clouds  
Wind Chill: 34°   Ceiling: 6500
Heat Index: 34°   Visibility: 10mi
Dew Point: 24°   Wind: 0mph
Humidity: 67%   Direction: NA
Pressure: 29.81"   Gusts: NA
Location:  45.44°N, 111.73°W
Report Text: KBZN 220456Z 00000KT 10SM BKN065 01/M04 A2981 RMK AO2 SLP112 T00111044
Loading
Personal Weather Stations






























Interactive Weather Map New forecast layout! Learn more

10-Day Weather Forecast

Advertisements
Track Severe Weather on mobile